Time;durP1;ratioP1;P1;durP2;ratioP2;P2;SDS_P1;SDS_P2;PMS_P1;PMS_P2;Temp;Humidity;BMP_temperature;BMP_pressure;BME280_temperature;BME280_humidity;BME280_pressure;Samples;Min_cycle;Max_cycle;Signal;HPM_P1;HPM_P2
2021/12/02 00:01:16;;;;;;;1.50;1.40;;;;;;;;;;5057609;28;20432;-77
2021/12/02 00:03:44;;;;;;;1.93;1.70;;;;;;;;;;5073884;28;20475;-75
2021/12/02 00:06:13;;;;;;;1.90;1.13;;;;;;;;;;5075810;28;20444;-74
2021/12/02 00:08:42;;;;;;;1.57;1.10;;;;;;;;;;5077165;28;20834;-74
2021/12/02 00:11:09;;;;;;;1.30;1.20;;;;;;;;;;5075036;28;20856;-75
2021/12/02 00:13:45;;;;;;;2.00;1.20;;;;;;;;;;5075849;28;20449;-75
2021/12/02 00:16:21;;;;;;;2.00;1.50;;;;;;;;;;5076342;28;20525;-76
2021/12/02 00:21:33;;;;;;;1.07;1.00;;;;;;;;;;5065486;28;20943;-75
2021/12/02 00:24:05;;;;;;;1.40;1.30;;;;;;;;;;5065130;28;20452;-76
2021/12/02 00:26:32;;;;;;;1.33;1.33;;;;;;;;;;5073763;28;20912;-75
2021/12/02 00:29:01;;;;;;;3.23;1.20;;;;;;;;;;5074153;28;20871;-75
2021/12/02 00:31:29;;;;;;;1.10;1.10;;;;;;;;;;5073774;28;20445;-75
2021/12/02 00:33:58;;;;;;;1.00;1.00;;;;;;;;;;5073139;28;20987;-74
2021/12/02 00:36:26;;;;;;;1.27;1.27;;;;;;;;;;5073721;28;20448;-77
2021/12/02 00:38:54;;;;;;;1.33;1.27;;;;;;;;;;5073622;28;20526;-75
2021/12/02 00:41:23;;;;;;;1.40;1.33;;;;;;;;;;5073491;28;21001;-76
2021/12/02 00:43:51;;;;;;;1.30;1.10;;;;;;;;;;5073434;28;20582;-74
2021/12/02 00:46:19;;;;;;;1.27;1.17;;;;;;;;;;5073539;28;20440;-76
2021/12/02 00:48:47;;;;;;;1.10;1.10;;;;;;;;;;5073460;28;20447;-75
2021/12/02 00:51:14;;;;;;;1.50;1.40;;;;;;;;;;5073162;28;20936;-74
2021/12/02 00:53:44;;;;;;;1.37;1.27;;;;;;;;;;5072889;28;20496;-75
2021/12/02 00:56:13;;;;;;;1.20;1.17;;;;;;;;;;5073063;28;20510;-75
2021/12/02 00:58:43;;;;;;;1.00;1.00;;;;;;;;;;5073401;28;20449;-76
2021/12/02 01:01:10;;;;;;;1.13;1.13;;;;;;;;;;5073217;28;20448;-75
2021/12/02 01:03:37;;;;;;;1.80;1.27;;;;;;;;;;5072864;28;20473;-75
2021/12/02 01:06:06;;;;;;;2.40;1.43;;;;;;;;;;5072981;28;20495;-75
2021/12/02 01:08:33;;;;;;;1.47;1.37;;;;;;;;;;5073369;28;20456;-76
2021/12/02 01:11:00;;;;;;;1.17;1.17;;;;;;;;;;5072864;28;20444;-75
2021/12/02 01:13:27;;;;;;;2.33;1.43;;;;;;;;;;5072906;28;20522;-75
2021/12/02 01:15:56;;;;;;;1.33;1.20;;;;;;;;;;5073167;28;20526;-76
2021/12/02 01:18:24;;;;;;;1.00;1.00;;;;;;;;;;5072927;28;20444;-74
2021/12/02 01:20:52;;;;;;;1.73;1.17;;;;;;;;;;5072578;28;20453;-75
2021/12/02 01:23:19;;;;;;;1.13;1.13;;;;;;;;;;5072693;28;20448;-76
2021/12/02 01:25:49;;;;;;;1.40;1.30;;;;;;;;;;5072722;28;20531;-74
2021/12/02 01:28:17;;;;;;;1.20;1.20;;;;;;;;;;5072646;28;20507;-75
2021/12/02 01:30:47;;;;;;;1.43;1.43;;;;;;;;;;5072424;28;20865;-75
2021/12/02 01:33:16;;;;;;;1.63;1.53;;;;;;;;;;5072148;28;20852;-75
2021/12/02 01:35:46;;;;;;;1.33;1.23;;;;;;;;;;5072731;28;20550;-74
2021/12/02 01:38:13;;;;;;;1.00;1.00;;;;;;;;;;5072627;28;20475;-75
2021/12/02 01:40:41;;;;;;;1.20;1.10;;;;;;;;;;5072424;28;21003;-76
2021/12/02 01:43:08;;;;;;;2.97;1.10;;;;;;;;;;5072183;28;20444;-76
2021/12/02 01:45:39;;;;;;;1.33;1.23;;;;;;;;;;5071985;28;20467;-75
2021/12/02 01:48:09;;;;;;;2.80;1.50;;;;;;;;;;5072376;28;20889;-75
2021/12/02 01:50:40;;;;;;;1.20;1.10;;;;;;;;;;5072069;28;20441;-75
2021/12/02 01:53:07;;;;;;;1.63;1.53;;;;;;;;;;5072175;28;20448;-76
2021/12/02 01:55:36;;;;;;;1.43;1.30;;;;;;;;;;5072083;28;20476;-75
2021/12/02 01:58:04;;;;;;;1.33;1.27;;;;;;;;;;5072175;28;20440;-75
2021/12/02 02:00:33;;;;;;;1.30;1.20;;;;;;;;;;5067856;28;20445;-77
2021/12/02 02:03:01;;;;;;;2.60;1.10;;;;;;;;;;5069683;28;20524;-74
2021/12/02 02:05:30;;;;;;;2.20;1.47;;;;;;;;;;5071775;28;20854;-75
2021/12/02 02:07:59;;;;;;;1.73;1.23;;;;;;;;;;5072289;28;20488;-74
2021/12/02 02:10:27;;;;;;;2.10;1.10;;;;;;;;;;5071908;28;20505;-76
2021/12/02 02:12:57;;;;;;;1.20;1.20;;;;;;;;;;5072247;28;20453;-76
2021/12/02 02:15:24;;;;;;;1.47;1.37;;;;;;;;;;5071858;28;20585;-76
2021/12/02 02:17:55;;;;;;;3.63;1.30;;;;;;;;;;5071883;28;20449;-75
2021/12/02 02:20:25;;;;;;;1.63;1.47;;;;;;;;;;5071791;28;20480;-75
2021/12/02 02:22:52;;;;;;;1.57;1.40;;;;;;;;;;5070983;28;20449;-74
2021/12/02 02:25:19;;;;;;;1.10;1.10;;;;;;;;;;5071350;28;20967;-76
2021/12/02 02:27:46;;;;;;;1.33;1.23;;;;;;;;;;5071689;28;20452;-74
2021/12/02 02:30:14;;;;;;;1.20;1.10;;;;;;;;;;5071766;28;20448;-74
2021/12/02 02:32:41;;;;;;;2.07;1.40;;;;;;;;;;5071692;28;20542;-75
2021/12/02 02:35:08;;;;;;;1.17;1.07;;;;;;;;;;5071513;28;20472;-74
2021/12/02 02:37:37;;;;;;;1.00;1.00;;;;;;;;;;5071361;28;20456;-76
2021/12/02 02:40:07;;;;;;;1.23;1.00;;;;;;;;;;5071387;28;20529;-74
2021/12/02 02:42:34;;;;;;;1.37;1.10;;;;;;;;;;5071326;28;20799;-74
2021/12/02 02:45:02;;;;;;;1.00;1.00;;;;;;;;;;5071125;28;20468;-76
2021/12/02 02:47:29;;;;;;;1.03;1.03;;;;;;;;;;5071551;28;20472;-75
2021/12/02 02:49:56;;;;;;;1.77;1.00;;;;;;;;;;5071448;28;20445;-75
2021/12/02 02:52:24;;;;;;;1.40;1.30;;;;;;;;;;5071309;28;20429;-74
2021/12/02 02:54:52;;;;;;;1.40;1.20;;;;;;;;;;5071261;28;20460;-75
2021/12/02 02:57:22;;;;;;;1.10;1.00;;;;;;;;;;5071143;28;20459;-74
2021/12/02 03:00:01;;;;;;;1.10;1.10;;;;;;;;;;5071621;28;20478;-75
2021/12/02 03:02:31;;;;;;;1.20;1.20;;;;;;;;;;5060911;28;20516;-75
2021/12/02 03:05:03;;;;;;;1.00;1.00;;;;;;;;;;5063385;28;20471;-76
2021/12/02 03:07:35;;;;;;;2.33;1.30;;;;;;;;;;5057420;28;20797;-75
2021/12/02 03:10:11;;;;;;;1.37;0.90;;;;;;;;;;5054255;28;20447;-76
2021/12/02 03:12:41;;;;;;;1.70;1.40;;;;;;;;;;5050998;28;20936;-75
2021/12/02 03:17:55;;;;;;;1.60;1.50;;;;;;;;;;5033465;28;20426;-76
2021/12/02 03:20:22;;;;;;;1.23;1.13;;;;;;;;;;5052278;28;20456;-75
2021/12/02 03:22:49;;;;;;;1.20;1.20;;;;;;;;;;5068483;28;20965;-75
2021/12/02 03:25:18;;;;;;;1.20;1.20;;;;;;;;;;5062619;28;20465;-74
2021/12/02 03:27:45;;;;;;;2.10;1.00;;;;;;;;;;5070880;28;20437;-75
2021/12/02 03:30:12;;;;;;;2.93;1.20;;;;;;;;;;5071200;28;20445;-75
2021/12/02 03:32:41;;;;;;;1.20;1.20;;;;;;;;;;5071009;28;20510;-75
2021/12/02 03:35:08;;;;;;;1.80;1.60;;;;;;;;;;5074095;28;20840;-75
2021/12/02 03:37:35;;;;;;;1.47;1.37;;;;;;;;;;5076173;28;20459;-74
2021/12/02 03:40:03;;;;;;;1.00;1.00;;;;;;;;;;5076594;28;20445;-73
2021/12/02 03:42:31;;;;;;;1.13;0.97;;;;;;;;;;5075753;28;20447;-75
2021/12/02 03:44:58;;;;;;;2.63;1.10;;;;;;;;;;5076452;28;20462;-75
2021/12/02 03:47:25;;;;;;;1.40;1.30;;;;;;;;;;5076757;28;20939;-74
2021/12/02 03:49:52;;;;;;;1.27;1.20;;;;;;;;;;5076606;28;20449;-74
2021/12/02 03:52:19;;;;;;;1.10;1.10;;;;;;;;;;5074900;28;20451;-74
2021/12/02 03:54:46;;;;;;;3.20;1.13;;;;;;;;;;5074138;28;20559;-77
2021/12/02 03:57:13;;;;;;;1.43;1.17;;;;;;;;;;5074259;28;20484;-75
2021/12/02 03:59:42;;;;;;;1.23;1.13;;;;;;;;;;5074353;28;20944;-75
2021/12/02 04:02:09;;;;;;;1.67;1.40;;;;;;;;;;5074599;28;20436;-76
2021/12/02 04:04:36;;;;;;;1.20;1.20;;;;;;;;;;5075034;28;20525;-74
2021/12/02 04:07:03;;;;;;;1.67;1.20;;;;;;;;;;5075124;28;20859;-74
2021/12/02 04:09:36;;;;;;;1.23;1.13;;;;;;;;;;5075396;28;20444;-75
2021/12/02 04:12:05;;;;;;;1.40;1.13;;;;;;;;;;5076122;28;20958;-75
2021/12/02 04:14:36;;;;;;;1.30;1.20;;;;;;;;;;5075370;28;20558;-76
2021/12/02 04:17:06;;;;;;;1.63;1.13;;;;;;;;;;5074147;28;20478;-78
2021/12/02 04:19:34;;;;;;;1.30;1.20;;;;;;;;;;5074861;28;20506;-76
2021/12/02 04:22:01;;;;;;;1.30;1.30;;;;;;;;;;5071170;28;20457;-76
2021/12/02 04:24:28;;;;;;;1.57;1.20;;;;;;;;;;5070730;28;20471;-76
2021/12/02 04:26:57;;;;;;;2.50;1.23;;;;;;;;;;5068998;28;20974;-75
2021/12/02 04:29:24;;;;;;;1.50;1.47;;;;;;;;;;5074444;28;20484;-74
2021/12/02 04:31:51;;;;;;;3.13;1.97;;;;;;;;;;5074190;28;20942;-75
2021/12/02 04:34:20;;;;;;;2.10;1.30;;;;;;;;;;5073903;28;20475;-75
2021/12/02 04:36:48;;;;;;;3.17;0.97;;;;;;;;;;5074749;28;20488;-75
2021/12/02 04:39:15;;;;;;;1.23;1.20;;;;;;;;;;5074350;28;20440;-75
2021/12/02 04:41:42;;;;;;;1.97;1.40;;;;;;;;;;5073824;28;20443;-74
2021/12/02 04:44:09;;;;;;;1.47;1.37;;;;;;;;;;5073333;28;20454;-76
2021/12/02 04:46:36;;;;;;;2.63;1.20;;;;;;;;;;5073047;28;20741;-74
2021/12/02 04:49:03;;;;;;;1.40;1.30;;;;;;;;;;5073463;28;20447;-75
2021/12/02 04:51:31;;;;;;;1.33;1.33;;;;;;;;;;5073743;28;20448;-75
2021/12/02 04:53:58;;;;;;;1.50;1.40;;;;;;;;;;5073204;28;20478;-77
2021/12/02 04:56:25;;;;;;;2.10;1.50;;;;;;;;;;5073174;28;20477;-75
2021/12/02 04:58:52;;;;;;;1.73;1.63;;;;;;;;;;5073322;28;20452;-75
2021/12/02 05:01:19;;;;;;;2.13;1.40;;;;;;;;;;5069109;28;20429;-75
2021/12/02 05:03:46;;;;;;;1.40;1.30;;;;;;;;;;5053248;28;20799;-75
2021/12/02 05:06:13;;;;;;;1.30;1.20;;;;;;;;;;5053869;28;20441;-75
2021/12/02 05:08:42;;;;;;;1.70;1.60;;;;;;;;;;5053429;28;20603;-75
2021/12/02 05:11:09;;;;;;;1.30;1.30;;;;;;;;;;5053190;28;20445;-77
2021/12/02 05:13:36;;;;;;;1.43;1.33;;;;;;;;;;5053517;28;20498;-74
2021/12/02 05:16:03;;;;;;;1.27;1.27;;;;;;;;;;5053395;28;20534;-75
2021/12/02 05:18:30;;;;;;;2.03;1.93;;;;;;;;;;5053455;28;20935;-74
2021/12/02 05:20:59;;;;;;;1.47;1.47;;;;;;;;;;5053378;28;20441;-75
2021/12/02 05:23:26;;;;;;;1.43;1.43;;;;;;;;;;5053435;28;20445;-75
2021/12/02 05:25:54;;;;;;;1.93;1.80;;;;;;;;;;5053277;28;21048;-75
2021/12/02 05:28:21;;;;;;;1.30;1.20;;;;;;;;;;5053682;28;20484;-77
2021/12/02 05:30:49;;;;;;;2.30;1.30;;;;;;;;;;5052846;28;20456;-74
2021/12/02 05:33:16;;;;;;;1.60;1.47;;;;;;;;;;5053286;28;20434;-75
2021/12/02 05:35:43;;;;;;;1.70;1.57;;;;;;;;;;5052820;28;20438;-74
2021/12/02 05:38:10;;;;;;;3.63;1.40;;;;;;;;;;5052756;28;20518;-75
2021/12/02 05:40:37;;;;;;;2.07;1.97;;;;;;;;;;5052998;28;20452;-74
2021/12/02 05:43:06;;;;;;;1.40;1.30;;;;;;;;;;5052423;28;20453;-75
2021/12/02 05:45:33;;;;;;;1.80;1.37;;;;;;;;;;5052446;28;20473;-75
2021/12/02 05:48:00;;;;;;;1.77;1.67;;;;;;;;;;5070964;28;20534;-76
2021/12/02 05:50:27;;;;;;;1.60;1.50;;;;;;;;;;5064330;28;20444;-74
2021/12/02 05:52:54;;;;;;;1.33;1.33;;;;;;;;;;5072415;28;20802;-74
2021/12/02 05:55:22;;;;;;;1.87;1.50;;;;;;;;;;5072674;28;20967;-75
2021/12/02 05:57:49;;;;;;;3.23;1.70;;;;;;;;;;5071128;28;20487;-76
2021/12/02 06:00:18;;;;;;;1.67;1.40;;;;;;;;;;5072625;28;20463;-74
2021/12/02 06:02:45;;;;;;;1.50;1.40;;;;;;;;;;5071678;28;20452;-76
2021/12/02 06:05:16;;;;;;;2.07;1.97;;;;;;;;;;5072282;28;20896;-76
2021/12/02 06:07:44;;;;;;;1.30;1.20;;;;;;;;;;5072179;28;20440;-76
2021/12/02 06:10:11;;;;;;;2.07;1.70;;;;;;;;;;5072107;28;20837;-75
2021/12/02 06:12:38;;;;;;;1.30;1.17;;;;;;;;;;5071878;28;20450;-76
2021/12/02 06:15:05;;;;;;;1.47;1.40;;;;;;;;;;5072074;28;20488;-76
2021/12/02 06:17:35;;;;;;;1.60;1.50;;;;;;;;;;5072441;28;20476;-74
2021/12/02 06:20:03;;;;;;;1.70;1.50;;;;;;;;;;5072171;28;20440;-75
2021/12/02 06:22:30;;;;;;;1.90;1.20;;;;;;;;;;5071901;28;20605;-76
2021/12/02 06:25:16;;;;;;;1.80;1.70;;;;;;;;;;5071676;28;20475;-75
2021/12/02 06:27:44;;;;;;;1.43;1.43;;;;;;;;;;5076749;28;20456;-74
2021/12/02 06:30:12;;;;;;;1.40;1.30;;;;;;;;;;5089201;28;20440;-75
2021/12/02 06:32:40;;;;;;;1.50;1.40;;;;;;;;;;5086203;28;20963;-76
2021/12/02 06:35:08;;;;;;;1.60;1.50;;;;;;;;;;5082025;28;20687;-75
2021/12/02 06:37:35;;;;;;;1.17;1.17;;;;;;;;;;5075554;28;20982;-76
2021/12/02 06:40:02;;;;;;;1.43;1.40;;;;;;;;;;5072151;28;20458;-75
2021/12/02 06:42:29;;;;;;;1.57;1.47;;;;;;;;;;5071397;28;20451;-79
2021/12/02 06:44:57;;;;;;;2.00;1.37;;;;;;;;;;5071729;28;20464;-76
2021/12/02 06:47:28;;;;;;;1.30;1.30;;;;;;;;;;5071839;28;20475;-75
2021/12/02 06:50:00;;;;;;;1.00;1.00;;;;;;;;;;5071850;28;20475;-75
2021/12/02 06:52:27;;;;;;;0.80;0.80;;;;;;;;;;5071721;28;20456;-77
2021/12/02 06:54:55;;;;;;;2.20;0.90;;;;;;;;;;5071609;28;20556;-75
2021/12/02 06:57:23;;;;;;;1.50;1.40;;;;;;;;;;5071252;28;20476;-75
2021/12/02 06:59:50;;;;;;;1.10;1.10;;;;;;;;;;5071900;28;20525;-76
2021/12/02 07:02:18;;;;;;;1.30;1.30;;;;;;;;;;5059512;28;20444;-74
2021/12/02 07:04:45;;;;;;;1.40;0.97;;;;;;;;;;5052969;28;20538;-74
2021/12/02 07:07:13;;;;;;;1.10;1.10;;;;;;;;;;5067492;28;20448;-76
2021/12/02 07:09:41;;;;;;;1.50;1.40;;;;;;;;;;5057210;28;20449;-75
2021/12/02 07:12:09;;;;;;;1.30;1.30;;;;;;;;;;5059193;28;20445;-75
2021/12/02 07:14:36;;;;;;;1.47;1.47;;;;;;;;;;5058591;28;20464;-76
2021/12/02 07:17:03;;;;;;;1.60;1.30;;;;;;;;;;5058504;28;20488;-77
2021/12/02 07:19:30;;;;;;;1.43;1.33;;;;;;;;;;5062483;28;20445;-76
2021/12/02 07:21:57;;;;;;;1.57;1.47;;;;;;;;;;5079229;28;20436;-75
2021/12/02 07:24:25;;;;;;;1.40;1.30;;;;;;;;;;5073791;28;20447;-76
2021/12/02 07:26:52;;;;;;;3.13;1.20;;;;;;;;;;5076827;28;20430;-78
2021/12/02 07:29:20;;;;;;;1.80;1.70;;;;;;;;;;5072075;28;20448;-75
2021/12/02 07:31:47;;;;;;;3.60;1.37;;;;;;;;;;5071529;28;20451;-76
2021/12/02 07:34:14;;;;;;;8.00;7.20;;;;;;;;;;5080361;28;20455;-78
2021/12/02 07:36:41;;;;;;;1.73;1.53;;;;;;;;;;5080214;28;20483;-76
2021/12/02 07:39:08;;;;;;;3.00;1.77;;;;;;;;;;5081429;28;20479;-77
2021/12/02 07:41:37;;;;;;;1.97;1.87;;;;;;;;;;5080458;28;20428;-76
2021/12/02 07:44:04;;;;;;;1.70;1.70;;;;;;;;;;5080023;28;20461;-76
2021/12/02 07:46:32;;;;;;;1.63;1.47;;;;;;;;;;5080280;28;20452;-77
2021/12/02 07:48:59;;;;;;;1.43;1.33;;;;;;;;;;5080715;28;20421;-80
2021/12/02 07:51:29;;;;;;;2.00;1.90;;;;;;;;;;5063433;28;20507;-77
2021/12/02 07:53:58;;;;;;;3.60;1.40;;;;;;;;;;5057640;28;20464;-74
2021/12/02 07:56:26;;;;;;;6.03;3.07;;;;;;;;;;5058489;28;20451;-76
2021/12/02 07:58:55;;;;;;;2.97;2.77;;;;;;;;;;5058416;28;20480;-76
2021/12/02 08:01:22;;;;;;;1.90;1.80;;;;;;;;;;5062999;28;20440;-75
2021/12/02 08:03:49;;;;;;;1.80;1.40;;;;;;;;;;5078046;28;20486;-75
2021/12/02 08:06:16;;;;;;;1.97;1.60;;;;;;;;;;5078275;28;20444;-75
2021/12/02 08:08:45;;;;;;;2.10;1.50;;;;;;;;;;5078127;28;20453;-77
2021/12/02 08:11:12;;;;;;;2.17;1.97;;;;;;;;;;5078286;28;20436;-75
2021/12/02 08:13:39;;;;;;;1.70;1.60;;;;;;;;;;5077356;28;20477;-75
2021/12/02 08:16:07;;;;;;;4.40;1.90;;;;;;;;;;5077937;28;20505;-75
2021/12/02 08:18:35;;;;;;;3.50;3.20;;;;;;;;;;5077622;28;20894;-76
2021/12/02 08:21:02;;;;;;;2.70;2.50;;;;;;;;;;5074392;28;20833;-76
2021/12/02 08:23:30;;;;;;;5.87;2.47;;;;;;;;;;5073782;28;20445;-77
2021/12/02 08:25:57;;;;;;;2.23;2.13;;;;;;;;;;5074704;28;20449;-74
2021/12/02 08:28:24;;;;;;;3.07;2.07;;;;;;;;;;5074324;28;20757;-75
2021/12/02 08:30:51;;;;;;;2.40;2.20;;;;;;;;;;5074780;28;20471;-77
2021/12/02 08:33:20;;;;;;;2.00;1.87;;;;;;;;;;5074958;28;20514;-75
2021/12/02 08:35:47;;;;;;;2.33;2.13;;;;;;;;;;5074424;28;20437;-75
2021/12/02 08:38:17;;;;;;;2.80;2.60;;;;;;;;;;5073574;28;20468;-77
2021/12/02 08:40:47;;;;;;;2.30;2.10;;;;;;;;;;5062692;28;20450;-74
2021/12/02 08:43:14;;;;;;;2.20;2.10;;;;;;;;;;5070169;28;20445;-76
2021/12/02 08:45:42;;;;;;;2.73;2.53;;;;;;;;;;5066446;28;20938;-75
2021/12/02 08:48:09;;;;;;;2.57;2.33;;;;;;;;;;5074618;28;20441;-76
2021/12/02 08:50:38;;;;;;;2.10;1.90;;;;;;;;;;5055171;28;20457;-75
2021/12/02 08:53:06;;;;;;;3.10;2.43;;;;;;;;;;5054889;28;20453;-75
2021/12/02 08:55:33;;;;;;;2.93;2.73;;;;;;;;;;5055643;28;20469;-75
2021/12/02 08:58:03;;;;;;;2.30;2.20;;;;;;;;;;5053703;28;20474;-75
2021/12/02 09:00:34;;;;;;;2.73;2.33;;;;;;;;;;5053522;28;20446;-76
2021/12/02 09:03:01;;;;;;;2.50;2.30;;;;;;;;;;5071181;28;20455;-77
2021/12/02 09:05:28;;;;;;;3.30;1.97;;;;;;;;;;5073530;28;20465;-75
2021/12/02 09:07:57;;;;;;;2.30;2.20;;;;;;;;;;5073475;28;20436;-76
2021/12/02 09:10:26;;;;;;;2.17;2.00;;;;;;;;;;5073645;28;20444;-75
2021/12/02 09:12:53;;;;;;;2.40;2.23;;;;;;;;;;5073455;28;20440;-75
2021/12/02 09:15:20;;;;;;;3.03;2.30;;;;;;;;;;5073492;28;20499;-75
2021/12/02 09:17:47;;;;;;;3.20;2.03;;;;;;;;;;5073385;28;20986;-76
2021/12/02 09:20:15;;;;;;;2.37;2.27;;;;;;;;;;5073053;28;20448;-76
2021/12/02 09:22:43;;;;;;;4.50;2.60;;;;;;;;;;5072761;28;20965;-77
2021/12/02 09:25:11;;;;;;;3.73;2.40;;;;;;;;;;5072909;28;20558;-74
2021/12/02 09:27:38;;;;;;;2.47;2.20;;;;;;;;;;5073180;28;20440;-76
2021/12/02 09:30:06;;;;;;;2.50;2.33;;;;;;;;;;5073227;28;20440;-76
2021/12/02 09:32:34;;;;;;;5.10;3.23;;;;;;;;;;5073387;28;20872;-74
2021/12/02 09:35:01;;;;;;;4.90;3.10;;;;;;;;;;5074932;28;21014;-77
2021/12/02 09:37:28;;;;;;;1.90;1.80;;;;;;;;;;5074850;28;20477;-75
2021/12/02 09:39:55;;;;;;;2.60;2.40;;;;;;;;;;5076006;28;20471;-73
2021/12/02 09:42:24;;;;;;;2.57;2.43;;;;;;;;;;5075254;28;20468;-74
2021/12/02 09:44:55;;;;;;;2.27;2.13;;;;;;;;;;5075595;28;20889;-76
2021/12/02 09:47:22;;;;;;;2.43;2.33;;;;;;;;;;5085517;28;20441;-76
2021/12/02 09:49:50;;;;;;;4.10;2.00;;;;;;;;;;5087089;28;20433;-77
2021/12/02 09:52:19;;;;;;;1.93;1.83;;;;;;;;;;5094009;28;20444;-79
2021/12/02 09:54:53;;;;;;;2.23;1.63;;;;;;;;;;5096460;28;20468;-81
2021/12/02 09:57:26;;;;;;;3.20;2.03;;;;;;;;;;5097133;28;20471;-79
2021/12/02 09:59:56;;;;;;;1.50;1.50;;;;;;;;;;5097333;28;20536;-80
2021/12/02 10:02:24;;;;;;;2.87;2.67;;;;;;;;;;5083617;28;20422;-78
2021/12/02 10:04:55;;;;;;;4.93;2.60;;;;;;;;;;5075993;28;20462;-77
2021/12/02 10:07:28;;;;;;;1.70;1.60;;;;;;;;;;5084374;28;20457;-80
2021/12/02 10:10:02;;;;;;;1.87;1.77;;;;;;;;;;5081519;28;20833;-76
2021/12/02 10:12:31;;;;;;;1.60;1.50;;;;;;;;;;5064215;28;20494;-79
2021/12/02 10:15:01;;;;;;;2.00;1.90;;;;;;;;;;5072590;28;20472;-75
2021/12/02 10:17:35;;;;;;;2.17;1.50;;;;;;;;;;5072498;28;20514;-76
2021/12/02 10:20:12;;;;;;;1.10;1.10;;;;;;;;;;5072132;28;20491;-75
2021/12/02 10:22:40;;;;;;;1.50;1.40;;;;;;;;;;5071794;28;20449;-76
2021/12/02 10:25:08;;;;;;;1.63;1.53;;;;;;;;;;5072246;28;20461;-76
2021/12/02 10:27:35;;;;;;;1.37;1.37;;;;;;;;;;5072204;28;20450;-76
2021/12/02 10:30:19;;;;;;;1.57;1.50;;;;;;;;;;5072216;28;20506;-75
2021/12/02 10:32:50;;;;;;;1.20;1.20;;;;;;;;;;5072297;28;20556;-77
2021/12/02 10:35:18;;;;;;;1.43;1.40;;;;;;;;;;5072143;28;20449;-76
2021/12/02 10:37:45;;;;;;;1.47;1.47;;;;;;;;;;5071354;28;21053;-77
2021/12/02 10:40:14;;;;;;;1.43;1.33;;;;;;;;;;5071807;28;20440;-75
2021/12/02 10:42:43;;;;;;;1.20;1.10;;;;;;;;;;5073258;28;20451;-75
2021/12/02 10:45:20;;;;;;;1.47;1.47;;;;;;;;;;5073254;28;20467;-76
2021/12/02 10:47:49;;;;;;;1.63;1.50;;;;;;;;;;5075462;28;20446;-75
2021/12/02 10:50:16;;;;;;;1.20;1.20;;;;;;;;;;5075571;28;20483;-77
2021/12/02 10:52:43;;;;;;;2.13;1.80;;;;;;;;;;5073790;28;20456;-76
2021/12/02 10:55:12;;;;;;;1.90;1.83;;;;;;;;;;5073288;28;20498;-75
2021/12/02 10:57:39;;;;;;;1.23;1.23;;;;;;;;;;5072593;28;20481;-76
2021/12/02 11:00:07;;;;;;;1.57;1.50;;;;;;;;;;5073147;28;20501;-77
2021/12/02 11:02:38;;;;;;;1.63;1.50;;;;;;;;;;5072873;28;20439;-75
2021/12/02 11:05:07;;;;;;;1.60;1.50;;;;;;;;;;5072632;28;20483;-75
2021/12/02 11:07:35;;;;;;;1.97;1.30;;;;;;;;;;5072808;28;20458;-76
2021/12/02 11:10:03;;;;;;;1.30;1.20;;;;;;;;;;5072325;28;20436;-75
2021/12/02 11:12:31;;;;;;;1.30;1.30;;;;;;;;;;5071814;28;20446;-78
2021/12/02 11:15:07;;;;;;;1.37;1.37;;;;;;;;;;5072182;28;20469;-77
2021/12/02 11:17:36;;;;;;;1.60;1.60;;;;;;;;;;5073882;28;20710;-76
2021/12/02 11:20:05;;;;;;;1.40;1.40;;;;;;;;;;5072714;28;20446;-76
2021/12/02 11:22:32;;;;;;;1.70;1.60;;;;;;;;;;5072187;28;20453;-78
2021/12/02 11:25:00;;;;;;;1.40;1.40;;;;;;;;;;5071036;28;20466;-75
2021/12/02 11:27:28;;;;;;;2.57;1.73;;;;;;;;;;5071403;28;20934;-76
2021/12/02 11:29:57;;;;;;;1.30;1.30;;;;;;;;;;5072029;28;20433;-76
2021/12/02 11:32:25;;;;;;;2.00;1.90;;;;;;;;;;5072555;28;20457;-76
2021/12/02 11:35:01;;;;;;;1.60;1.50;;;;;;;;;;5072768;28;20468;-76
2021/12/02 11:37:28;;;;;;;2.30;1.70;;;;;;;;;;5072158;28;20442;-75
2021/12/02 11:39:57;;;;;;;1.87;1.77;;;;;;;;;;5072553;28;20455;-76
2021/12/02 11:42:24;;;;;;;2.03;1.77;;;;;;;;;;5072340;28;20459;-80
2021/12/02 11:44:52;;;;;;;1.50;1.50;;;;;;;;;;5071649;28;20492;-76
2021/12/02 11:47:19;;;;;;;1.30;1.30;;;;;;;;;;5072484;28;20461;-76
2021/12/02 11:49:46;;;;;;;1.67;1.60;;;;;;;;;;5072388;28;20456;-77
2021/12/02 11:52:15;;;;;;;1.83;1.73;;;;;;;;;;5072144;28;20458;-76
2021/12/02 11:54:42;;;;;;;1.70;1.70;;;;;;;;;;5072309;28;20667;-76
2021/12/02 11:57:09;;;;;;;1.80;1.70;;;;;;;;;;5074911;28;20475;-76
2021/12/02 11:59:36;;;;;;;1.97;1.83;;;;;;;;;;5075479;28;20510;-76
2021/12/02 12:02:04;;;;;;;1.97;1.87;;;;;;;;;;5064918;28;20934;-77
2021/12/02 12:04:31;;;;;;;2.10;1.83;;;;;;;;;;5054909;28;20467;-77
2021/12/02 12:07:09;;;;;;;2.00;1.90;;;;;;;;;;5055817;28;20448;-77
2021/12/02 12:09:38;;;;;;;2.30;2.10;;;;;;;;;;5055732;28;20422;-79
2021/12/02 12:12:05;;;;;;;1.63;1.63;;;;;;;;;;5067857;28;20447;-77
2021/12/02 12:14:36;;;;;;;1.90;1.80;;;;;;;;;;5069940;28;20968;-77
2021/12/02 12:17:08;;;;;;;1.80;1.70;;;;;;;;;;5057510;28;20542;-77
2021/12/02 12:19:40;;;;;;;1.70;1.60;;;;;;;;;;5064061;28;20483;-76
2021/12/02 12:22:08;;;;;;;2.13;2.03;;;;;;;;;;5059636;28;20446;-76
2021/12/02 12:24:44;;;;;;;2.40;2.03;;;;;;;;;;5070718;28;20844;-76
2021/12/02 12:27:12;;;;;;;1.90;1.80;;;;;;;;;;5072327;28;20481;-77
2021/12/02 12:29:39;;;;;;;1.93;1.83;;;;;;;;;;5055172;28;20450;-77
2021/12/02 12:35:19;;;;;;;2.50;2.40;;;;;;;;;;5050852;28;20445;-77
2021/12/02 12:37:54;;;;;;;2.70;2.37;;;;;;;;;;5054758;28;20476;-77
2021/12/02 12:40:25;;;;;;;2.17;2.07;;;;;;;;;;5054419;28;20826;-77
2021/12/02 12:42:53;;;;;;;2.17;2.07;;;;;;;;;;5054165;28;20443;-75
2021/12/02 12:45:25;;;;;;;4.43;2.47;;;;;;;;;;5054457;28;20495;-76
2021/12/02 12:47:53;;;;;;;2.83;2.53;;;;;;;;;;5055057;28;20445;-76
2021/12/02 12:50:32;;;;;;;2.50;2.40;;;;;;;;;;5054842;28;20442;-77
2021/12/02 12:53:18;;;;;;;2.20;2.10;;;;;;;;;;5054242;28;20445;-77
2021/12/02 12:56:01;;;;;;;2.70;2.50;;;;;;;;;;5054492;28;20453;-77
2021/12/02 12:58:30;;;;;;;5.37;2.43;;;;;;;;;;5055292;28;20485;-76
2021/12/02 13:00:59;;;;;;;2.93;2.73;;;;;;;;;;5055699;28;20821;-79
2021/12/02 13:03:30;;;;;;;2.90;2.80;;;;;;;;;;5074250;28;20449;-79
2021/12/02 13:06:02;;;;;;;2.33;2.23;;;;;;;;;;5075070;28;20437;-76
2021/12/02 13:08:35;;;;;;;2.73;2.37;;;;;;;;;;5075613;28;20490;-77
2021/12/02 13:11:04;;;;;;;2.20;2.10;;;;;;;;;;5074191;28;20488;-76
2021/12/02 13:13:32;;;;;;;2.53;2.43;;;;;;;;;;5074953;28;21076;-78
2021/12/02 13:16:09;;;;;;;3.10;2.90;;;;;;;;;;5074660;28;20441;-76
2021/12/02 13:18:39;;;;;;;2.40;2.30;;;;;;;;;;5074481;28;20507;-77
2021/12/02 13:21:19;;;;;;;2.40;2.20;;;;;;;;;;5074351;28;20449;-75
2021/12/02 13:23:56;;;;;;;2.80;2.27;;;;;;;;;;5074441;28;20468;-78
2021/12/02 13:26:26;;;;;;;2.43;2.30;;;;;;;;;;5074817;28;20437;-77
2021/12/02 13:28:54;;;;;;;2.50;2.33;;;;;;;;;;5074103;28;20444;-76
2021/12/02 13:31:22;;;;;;;3.10;2.83;;;;;;;;;;5073475;28;20459;-77
2021/12/02 13:33:51;;;;;;;3.10;2.87;;;;;;;;;;5073049;28;20464;-76
2021/12/02 13:36:19;;;;;;;2.13;2.03;;;;;;;;;;5073206;28;20464;-76
2021/12/02 13:38:59;;;;;;;3.00;2.70;;;;;;;;;;5073189;28;20517;-77
2021/12/02 13:41:28;;;;;;;3.10;2.90;;;;;;;;;;5072937;28;20452;-77
2021/12/02 13:44:01;;;;;;;3.00;2.80;;;;;;;;;;5072851;28;21041;-75
2021/12/02 13:46:32;;;;;;;3.60;3.30;;;;;;;;;;5072978;28;20448;-79
2021/12/02 13:49:01;;;;;;;2.60;2.50;;;;;;;;;;5067755;28;20453;-76
2021/12/02 13:54:24;;;;;;;2.60;2.40;;;;;;;;;;5065002;28;20938;-77
2021/12/02 13:56:52;;;;;;;3.03;2.83;;;;;;;;;;5073079;28;20454;-78
2021/12/02 13:59:23;;;;;;;1.87;1.77;;;;;;;;;;5072462;28;20487;-77
2021/12/02 14:01:51;;;;;;;2.60;2.40;;;;;;;;;;5072615;28;20970;-77
2021/12/02 14:04:18;;;;;;;1.83;1.73;;;;;;;;;;5071997;28;20977;-77
2021/12/02 14:06:45;;;;;;;2.10;1.90;;;;;;;;;;5072383;28;20447;-77
2021/12/02 14:09:17;;;;;;;1.97;1.87;;;;;;;;;;5072534;28;20443;-79
2021/12/02 14:11:44;;;;;;;1.37;1.33;;;;;;;;;;5072584;28;20542;-76
2021/12/02 14:14:18;;;;;;;1.70;1.60;;;;;;;;;;5073089;28;20464;-78
2021/12/02 14:16:45;;;;;;;1.60;1.60;;;;;;;;;;5073545;28;20416;-78
2021/12/02 14:19:13;;;;;;;1.80;1.80;;;;;;;;;;5071867;28;20547;-76
2021/12/02 14:21:40;;;;;;;3.70;1.83;;;;;;;;;;5072959;28;20448;-79
2021/12/02 14:24:07;;;;;;;1.87;1.77;;;;;;;;;;5072799;28;20466;-76
2021/12/02 14:26:34;;;;;;;2.70;2.50;;;;;;;;;;5072575;28;20448;-77
2021/12/02 14:29:01;;;;;;;1.93;1.80;;;;;;;;;;5072402;28;20474;-76
2021/12/02 14:31:31;;;;;;;2.37;1.83;;;;;;;;;;5072591;28;20458;-76
2021/12/02 14:33:59;;;;;;;2.07;1.87;;;;;;;;;;5067034;28;20470;-77
2021/12/02 14:36:27;;;;;;;1.90;1.80;;;;;;;;;;5064538;28;20452;-77
2021/12/02 14:39:00;;;;;;;2.43;2.33;;;;;;;;;;5065884;28;20507;-76
2021/12/02 14:41:27;;;;;;;1.93;1.83;;;;;;;;;;5071595;28;20787;-76
2021/12/02 14:43:55;;;;;;;3.30;2.27;;;;;;;;;;5071982;28;20461;-77
2021/12/02 14:46:24;;;;;;;2.20;2.00;;;;;;;;;;5072180;28;20810;-77
2021/12/02 14:49:11;;;;;;;2.93;2.70;;;;;;;;;;5072139;28;20441;-77
2021/12/02 14:51:49;;;;;;;3.00;2.40;;;;;;;;;;5072865;28;20467;-77
2021/12/02 14:54:26;;;;;;;3.23;2.80;;;;;;;;;;5071930;28;21122;-76
2021/12/02 14:56:53;;;;;;;3.00;2.73;;;;;;;;;;5067019;28;20821;-77
2021/12/02 14:59:21;;;;;;;2.80;2.60;;;;;;;;;;5072814;28;21010;-80
2021/12/02 15:01:55;;;;;;;7.03;3.10;;;;;;;;;;5068090;28;20453;-77
2021/12/02 15:04:25;;;;;;;3.00;2.73;;;;;;;;;;5064784;28;20470;-78